AirNav   BOSE A20 Aviation Headset
 
 992 users online  

PA40 Benton Airport
Benton, Pennsylvania, USA

GOING TO BENTON?


FAA INFORMATION EFFECTIVE 26 APRIL 2018

Location

FAA Identifier: PA40
Lat/Long: 41-12-00.3010N / 076-23-13.7900W
41-12.005017N / 076-23.229833W
41.2000836 / -76.3871639
(estimated)
Elevation: 780 ft. / 238 m (estimated)
Variation: 11W (1985)
From city: 4 miles W of BENTON, PA
Time zone: UTC -4 (UTC -5 during Standard Time)
Zip code: 17814

Airport Operations

Airport use: Private use. Permission required prior to landing
Activation date: 04/1947
Control tower: no
ARTCC: NEW YORK CENTER
FSS: WILLIAMSPORT FLIGHT SERVICE STATION
Attendance: UNATNDD
Wind indicator: yes
Segmented circle: no

Airport Communications

WX AWOS-3 at 79PN (17 nm SW): 118.075 (570-271-8192)

Nearby radio navigation aids

VOR radial/distance  VOR name  Freq  Var
MIPr059/16.4MILTON VORTAC109.2009W
FQMr124/19.4WILLIAMSPORT VOR/DME114.4009W
LVZr272/31.8WILKES-BARRE VORTAC111.6010W
SEGr051/33.3SELINSGROVE VOR/DME110.4008W
RAVr025/40.0RAVINE VORTAC114.6011W

Airport Services

Airframe service: NONE
Powerplant service: NONE

Runway Information

Runway 3/21

Dimensions: 2200 x 150 ft. / 671 x 46 m
Surface: turf
RUNWAY 3  RUNWAY 21
Traffic pattern: leftleft
Obstructions: 35 ft. trees, 26 ft. from runway16 ft. road, 77 ft. from runway

Airport Ownership and Management from official FAA records

Ownership: Publicly-owned
Owner: BENTON AIRPORT ASSOCIATION, LLC
4350 RED ROCK ROAD, ATTN: BOB BREWINGTON
BENTON, PA 17814
Phone 570-204-1977
ROBERT BREWINGTON, PRESIDENT
Manager: MONTY HITTLE
4350 RED ROCK ROAD, APT B
BENTON, PA 17814
Phone (570) 317-7073

Airport Operational Statistics

Aircraft based on the field: 8
Single engine airplanes: 8
    

Instrument Procedures

There are no published instrument procedures at PA40.

Some nearby airports with instrument procedures:

N13 - Bloomsburg Municipal Airport (12 nm S)
8N8 - Danville Airport (19 nm SW)
KHZL - Hazleton Regional Airport (22 nm SE)
N79 - Northumberland County Airport (23 nm S)
KIPT - Williamsport Regional Airport (24 nm W)
 
Loc | Ops | Rwys | IFR | FBO | Links
Com | Nav | Svcs | Stats | Notes

AirNav Hotels Sweepstakes
 
Area around PA40 (Benton Airport)
 
Road maps at: MapQuest Bing Google
 
Aerial photo
WARNING: Photo may not be current or correct
Aerial photo of PA40 (Benton Airport)
Photo taken 10-Apr-2005

Do you have a better or more recent aerial photo of Benton Airport that you would like to share? If so, please send us your photo.

 
Sectional chart

 
Airport distance calculator
Flying to Benton Airport? Find the distance to fly.

From to PA40

Sunrise and sunset
Times for 20-May-2018
 Local
(UTC-4)
 Zulu
(UTC)
Morning civil twilight05:1209:12
Sunrise05:4409:44
Sunset20:2000:20
Evening civil twilight20:5200:52

Current date and time
Zulu (UTC)  20-May-2018 18:41:40
Local (UTC-4)  20-May-2018 14:41:40
 
METAR
KHZL 
22nm SE 
201815Z AUTO 27005KT 10SM SCT019 BKN030 OVC038 22/16 A3006 RMK AO2
KIPT 
24nm W 
201754Z 25009KT 10SM FEW042 OVC065 24/16 A2999 RMK AO2 SLP153 T02390161 10244 20156 55000
KAVP 
31nm E 
201820Z 32005KT 9SM -RA SCT015 OVC039 19/17 A3000 RMK AO2 RAB01 P0002 T01940172 $
KSEG 
32nm SW 
201753Z AUTO 00000KT 10SM BKN041 BKN055 OVC070 23/19 A3001 RMK AO2 SLP161 60000 T02330189 10233 20161 53001
TAF
KIPT 
24nm W 
201727Z 2018/2118 VRB05KT P6SM BKN040 FM202000 30008KT P6SM BKN050 FM210000 34004KT P6SM SCT100 FM210600 29003KT 4SM BR SCT004 FM211300 VRB02KT P6SM SCT250
NOTAMs
Click for the latest NOTAMs
NOTAMs are issued by the DoD/FAA and will open in a separate window not controlled by AirNav.

 

 
 

Would you like to see your business listed on this page?

 If your business provides an interesting product or service to pilots, flight crews, aircraft, or users of the Benton Airport, you should consider listing it here.  To start the listing process, click on the button below
 
Add a business
 

Other Pages about Benton Airport

Update a link
 
Copyright © AirNav, LLC. All rights reserved. Privacy Policy  Contact